Time;durP1;ratioP1;P1;durP2;ratioP2;P2;SDS_P1;SDS_P2;PMS_P1;PMS_P2;Temp;Humidity;BMP_temperature;BMP_pressure;BME280_temperature;BME280_humidity;BME280_pressure;Samples;Min_cycle;Max_cycle;Signal;HPM_P1;HPM_P2
2022/10/26 00:01:25;;;;;;;;;;;10.30;99.90;;;;;;5069309;28;19916;-54
2022/10/26 00:03:50;;;;;;;;;;;10.30;99.90;;;;;;5056781;28;19928;-50
2022/10/26 00:06:17;;;;;;;;;;;10.30;99.90;;;;;;5061645;28;19916;-51
2022/10/26 00:08:43;;;;;;;;;;;10.30;99.90;;;;;;5069981;28;19931;-50
2022/10/26 00:11:09;;;;;;;;;;;10.20;99.90;;;;;;5055573;28;19917;-50
2022/10/26 00:13:35;;;;;;;;;;;10.20;99.90;;;;;;5068763;28;19916;-52
2022/10/26 00:16:06;;;;;;;;;;;10.20;99.90;;;;;;5069549;28;20007;-52
2022/10/26 00:18:31;;;;;;;;;;;10.20;99.90;;;;;;5063515;28;19921;-53
2022/10/26 00:21:01;;;;;;;;;;;10.10;99.90;;;;;;5059924;28;19916;-52
2022/10/26 00:23:27;;;;;;;;;;;10.10;99.90;;;;;;5053786;28;19926;-49
2022/10/26 00:25:53;;;;;;;;;;;10.10;99.90;;;;;;5056692;28;19999;-50
2022/10/26 00:28:18;;;;;;;;;;;10.10;99.90;;;;;;5063465;28;19917;-49
2022/10/26 00:30:44;;;;;;;;;;;10.10;99.90;;;;;;5059609;28;19979;-49
2022/10/26 00:33:11;;;;;;;;;;;10.00;99.90;;;;;;5061530;28;19960;-49
2022/10/26 00:35:37;;;;;;;;;;;9.90;99.90;;;;;;5057811;28;19921;-49
2022/10/26 00:38:02;;;;;;;;;;;9.90;99.90;;;;;;5068774;28;19935;-49
2022/10/26 00:40:28;;;;;;;;;;;9.90;99.90;;;;;;5068188;28;19917;-50
2022/10/26 00:42:54;;;;;;;;;;;9.90;99.90;;;;;;5060588;28;20004;-53
2022/10/26 00:45:26;;;;;;;;;;;9.90;99.90;;;;;;5068438;28;20011;-50
2022/10/26 00:48:04;;;;;;;;;;;9.90;99.90;;;;;;5070550;28;19922;-49
2022/10/26 00:50:35;;;;;;;;;;;9.80;99.90;;;;;;5057011;28;19916;-50
2022/10/26 00:53:02;;;;;;;;;;;9.70;99.90;;;;;;5054127;28;20377;-49
2022/10/26 00:55:30;;;;;;;;;;;9.70;99.90;;;;;;5065266;28;19916;-50
2022/10/26 00:57:57;;;;;;;;;;;9.70;99.90;;;;;;5069231;28;20019;-50
2022/10/26 01:00:22;;;;;;;;;;;9.60;99.90;;;;;;5054798;28;19917;-50
2022/10/26 01:02:49;;;;;;;;;;;9.60;99.90;;;;;;5067956;28;19927;-50
2022/10/26 01:05:16;;;;;;;;;;;9.60;99.90;;;;;;5057052;28;19916;-51
2022/10/26 01:07:42;;;;;;;;;;;9.60;99.90;;;;;;5055865;28;20019;-49
2022/10/26 01:10:08;;;;;;;;;;;9.60;99.90;;;;;;5064431;28;20285;-49
2022/10/26 01:12:33;;;;;;;;;;;9.60;99.90;;;;;;5057463;28;19923;-50
2022/10/26 01:14:59;;;;;;;;;;;9.60;99.90;;;;;;5063227;28;20335;-49
2022/10/26 01:17:24;;;;;;;;;;;9.70;99.90;;;;;;5057748;28;19924;-49
2022/10/26 01:20:08;;;;;;;;;;;9.70;99.90;;;;;;5064125;28;20397;-50
2022/10/26 01:22:37;;;;;;;;;;;9.70;99.90;;;;;;5053555;28;19920;-50
2022/10/26 01:25:11;;;;;;;;;;;9.70;99.90;;;;;;5053414;28;20441;-49
2022/10/26 01:27:41;;;;;;;;;;;9.70;99.90;;;;;;5057983;28;19916;-48
2022/10/26 01:30:14;;;;;;;;;;;9.60;99.90;;;;;;5070280;28;19975;-50
2022/10/26 01:32:58;;;;;;;;;;;9.60;99.90;;;;;;5069548;28;19916;-50
2022/10/26 01:35:29;;;;;;;;;;;9.60;99.90;;;;;;5055650;28;20200;-49
2022/10/26 01:38:08;;;;;;;;;;;9.60;99.90;;;;;;5051534;28;19922;-49
2022/10/26 01:40:39;;;;;;;;;;;9.60;99.90;;;;;;5061508;28;19963;-53
2022/10/26 01:43:07;;;;;;;;;;;9.60;99.90;;;;;;5058277;28;19925;-49
2022/10/26 01:45:34;;;;;;;;;;;9.60;99.90;;;;;;5058440;28;19917;-49
2022/10/26 01:48:00;;;;;;;;;;;9.60;99.90;;;;;;5062256;28;20368;-49
2022/10/26 01:50:26;;;;;;;;;;;9.60;99.90;;;;;;5053966;28;19942;-53
2022/10/26 01:52:52;;;;;;;;;;;9.60;99.90;;;;;;5061373;28;20007;-49
2022/10/26 01:55:36;;;;;;;;;;;9.60;99.90;;;;;;5055436;28;19938;-51
2022/10/26 01:58:07;;;;;;;;;;;9.50;99.90;;;;;;5060276;28;20007;-53
2022/10/26 02:00:36;;;;;;;;;;;9.50;99.90;;;;;;5055759;28;19956;-50
2022/10/26 02:03:34;;;;;;;;;;;9.40;99.90;;;;;;5059344;28;19925;-51
2022/10/26 02:06:08;;;;;;;;;;;9.40;99.90;;;;;;5049068;28;20439;-50
2022/10/26 02:08:37;;;;;;;;;;;9.30;99.90;;;;;;5052517;28;19963;-50
2022/10/26 02:11:02;;;;;;;;;;;9.30;99.90;;;;;;5069279;28;19923;-52
2022/10/26 02:13:35;;;;;;;;;;;9.10;99.90;;;;;;5051429;28;19917;-51
2022/10/26 02:16:13;;;;;;;;;;;9.10;99.90;;;;;;5060943;28;20336;-53
2022/10/26 02:18:41;;;;;;;;;;;9.00;99.90;;;;;;5058470;28;19923;-52
2022/10/26 02:21:11;;;;;;;;;;;9.10;99.90;;;;;;5059012;28;19921;-52
2022/10/26 02:23:39;;;;;;;;;;;9.10;99.90;;;;;;5060667;28;19921;-52
2022/10/26 02:26:07;;;;;;;;;;;9.10;99.90;;;;;;5056133;28;19924;-52
2022/10/26 02:28:34;;;;;;;;;;;9.20;99.90;;;;;;5061024;28;19924;-53
2022/10/26 02:31:01;;;;;;;;;;;9.20;99.90;;;;;;5051457;28;20309;-52
2022/10/26 02:33:29;;;;;;;;;;;9.20;99.90;;;;;;5065448;28;19970;-51
2022/10/26 02:35:57;;;;;;;;;;;9.20;99.90;;;;;;5054583;28;19916;-53
2022/10/26 02:38:23;;;;;;;;;;;9.30;99.90;;;;;;5056662;28;19936;-52
2022/10/26 02:40:50;;;;;;;;;;;9.30;99.90;;;;;;5055166;28;19917;-50
2022/10/26 02:43:20;;;;;;;;;;;9.30;99.90;;;;;;5059920;28;19920;-52
2022/10/26 02:45:48;;;;;;;;;;;9.30;99.90;;;;;;5064397;28;19917;-52
2022/10/26 02:48:14;;;;;;;;;;;9.30;99.90;;;;;;5062481;28;19917;-53
2022/10/26 02:50:46;;;;;;;;;;;9.30;99.90;;;;;;5062872;28;19916;-48
2022/10/26 02:53:23;;;;;;;;;;;9.30;99.90;;;;;;5071649;28;20378;-49
2022/10/26 02:55:49;;;;;;;;;;;9.30;99.90;;;;;;5063793;28;19916;-50
2022/10/26 02:58:23;;;;;;;;;;;9.40;99.90;;;;;;5060877;28;20046;-49
2022/10/26 03:00:49;;;;;;;;;;;9.30;99.90;;;;;;5070354;28;19917;-49
2022/10/26 03:03:15;;;;;;;;;;;9.30;99.90;;;;;;5071731;28;19927;-49
2022/10/26 03:05:41;;;;;;;;;;;9.30;99.90;;;;;;5072347;28;19916;-51
2022/10/26 03:08:06;;;;;;;;;;;9.30;99.90;;;;;;5072658;28;19982;-51
2022/10/26 03:10:32;;;;;;;;;;;9.30;99.90;;;;;;5065191;28;19970;-49
2022/10/26 03:12:58;;;;;;;;;;;9.30;99.90;;;;;;5064790;28;19923;-50
2022/10/26 03:15:23;;;;;;;;;;;9.30;99.90;;;;;;5061970;28;19917;-49
2022/10/26 03:17:49;;;;;;;;;;;9.30;99.90;;;;;;5068155;28;19917;-52
2022/10/26 03:20:14;;;;;;;;;;;9.30;99.90;;;;;;5069892;28;19938;-50
2022/10/26 03:22:40;;;;;;;;;;;9.30;99.90;;;;;;5058500;28;19978;-52
2022/10/26 03:25:06;;;;;;;;;;;9.40;99.90;;;;;;5063882;28;19916;-49
2022/10/26 03:27:31;;;;;;;;;;;9.30;99.90;;;;;;5055210;28;19927;-49
2022/10/26 03:29:57;;;;;;;;;;;9.40;99.90;;;;;;5066813;28;19956;-48
2022/10/26 03:32:22;;;;;;;;;;;9.30;99.90;;;;;;5053516;28;19939;-49
2022/10/26 03:34:47;;;;;;;;;;;9.30;99.90;;;;;;5056011;28;20400;-50
2022/10/26 03:37:13;;;;;;;;;;;9.30;99.90;;;;;;5066068;28;19966;-49
2022/10/26 03:39:38;;;;;;;;;;;9.30;99.90;;;;;;5065674;28;20290;-49
2022/10/26 03:42:04;;;;;;;;;;;9.30;99.90;;;;;;5053257;28;19923;-49
2022/10/26 03:44:30;;;;;;;;;;;9.30;99.90;;;;;;5062260;28;19956;-51
2022/10/26 03:46:55;;;;;;;;;;;9.30;99.90;;;;;;5053356;28;19917;-50
2022/10/26 03:49:20;;;;;;;;;;;9.30;99.90;;;;;;5063277;28;19927;-50
2022/10/26 03:51:46;;;;;;;;;;;9.30;99.90;;;;;;5063851;28;19916;-48
2022/10/26 03:54:11;;;;;;;;;;;9.30;99.90;;;;;;5055111;28;20397;-49
2022/10/26 03:56:37;;;;;;;;;;;9.30;99.90;;;;;;5055425;28;19947;-49
2022/10/26 03:59:02;;;;;;;;;;;9.30;99.90;;;;;;5063338;28;19928;-49
2022/10/26 04:01:28;;;;;;;;;;;9.20;99.90;;;;;;5070338;28;19932;-52
2022/10/26 04:03:53;;;;;;;;;;;9.20;99.90;;;;;;5063596;28;20009;-52
2022/10/26 04:06:19;;;;;;;;;;;9.20;99.90;;;;;;5054068;28;19921;-49
2022/10/26 04:08:44;;;;;;;;;;;9.10;99.90;;;;;;5060550;28;20483;-52
2022/10/26 04:11:10;;;;;;;;;;;9.10;99.90;;;;;;5062489;28;19970;-49
2022/10/26 04:13:35;;;;;;;;;;;9.10;99.90;;;;;;5054716;28;20378;-53
2022/10/26 04:16:01;;;;;;;;;;;9.10;99.90;;;;;;5063105;28;20005;-49
2022/10/26 04:18:26;;;;;;;;;;;9.10;99.90;;;;;;5056325;28;19952;-49
2022/10/26 04:20:51;;;;;;;;;;;9.10;99.90;;;;;;5060412;28;19928;-49
2022/10/26 04:23:17;;;;;;;;;;;9.10;99.90;;;;;;5066971;28;20335;-49
2022/10/26 04:25:43;;;;;;;;;;;9.10;99.90;;;;;;5056552;28;19916;-49
2022/10/26 04:28:10;;;;;;;;;;;9.10;99.90;;;;;;5066112;28;19916;-49
2022/10/26 04:30:35;;;;;;;;;;;9.00;99.90;;;;;;5034015;28;19917;-49
2022/10/26 04:33:02;;;;;;;;;;;9.00;99.90;;;;;;5066294;28;20020;-53
2022/10/26 04:35:27;;;;;;;;;;;9.00;99.90;;;;;;5068964;28;19920;-50
2022/10/26 04:37:57;;;;;;;;;;;9.00;99.90;;;;;;5053916;28;19917;-51
2022/10/26 04:40:22;;;;;;;;;;;9.10;99.90;;;;;;5065107;28;19960;-52
2022/10/26 04:42:47;;;;;;;;;;;9.20;99.90;;;;;;5067888;28;20389;-52
2022/10/26 04:45:14;;;;;;;;;;;9.20;99.90;;;;;;5059958;28;19920;-48
2022/10/26 04:47:40;;;;;;;;;;;9.30;99.90;;;;;;5053171;28;19932;-53
2022/10/26 04:50:06;;;;;;;;;;;9.30;99.90;;;;;;5069032;28;19916;-51
2022/10/26 04:52:32;;;;;;;;;;;9.40;99.90;;;;;;5065689;28;19926;-52
2022/10/26 04:54:57;;;;;;;;;;;9.40;99.90;;;;;;5059935;28;20425;-50
2022/10/26 04:57:23;;;;;;;;;;;9.50;99.90;;;;;;5082723;28;19942;-49
2022/10/26 04:59:48;;;;;;;;;;;9.50;99.90;;;;;;5052326;28;19917;-53
2022/10/26 05:02:14;;;;;;;;;;;9.60;99.90;;;;;;5052470;28;20385;-51
2022/10/26 05:04:39;;;;;;;;;;;9.60;99.90;;;;;;5053872;28;19924;-49
2022/10/26 05:07:05;;;;;;;;;;;9.60;99.90;;;;;;5070958;28;19924;-51
2022/10/26 05:09:30;;;;;;;;;;;9.60;99.90;;;;;;5054790;28;19920;-51
2022/10/26 05:11:55;;;;;;;;;;;9.70;99.90;;;;;;5067786;28;19916;-53
2022/10/26 05:14:21;;;;;;;;;;;9.60;99.90;;;;;;5062427;28;19926;-53
2022/10/26 05:16:46;;;;;;;;;;;9.60;99.90;;;;;;5068821;28;19932;-50
2022/10/26 05:19:12;;;;;;;;;;;9.60;99.90;;;;;;5058567;28;20358;-50
2022/10/26 05:21:37;;;;;;;;;;;9.60;99.90;;;;;;5075649;28;19966;-51
2022/10/26 05:24:03;;;;;;;;;;;9.60;99.90;;;;;;5061284;28;19921;-49
2022/10/26 05:26:28;;;;;;;;;;;9.60;99.90;;;;;;5058291;28;20490;-50
2022/10/26 05:28:54;;;;;;;;;;;9.60;99.90;;;;;;5055381;28;20337;-49
2022/10/26 05:31:20;;;;;;;;;;;9.70;99.90;;;;;;5058003;28;19970;-48
2022/10/26 05:33:49;;;;;;;;;;;9.70;99.90;;;;;;5051550;28;20344;-48
2022/10/26 05:36:15;;;;;;;;;;;9.70;99.90;;;;;;5062818;28;20270;-49
2022/10/26 05:38:41;;;;;;;;;;;9.70;99.90;;;;;;5057198;28;20388;-49
2022/10/26 05:41:06;;;;;;;;;;;9.70;99.90;;;;;;5059542;28;20012;-51
2022/10/26 05:43:32;;;;;;;;;;;9.80;99.90;;;;;;5054359;28;20378;-48
2022/10/26 05:45:57;;;;;;;;;;;9.80;99.90;;;;;;5062342;28;19917;-51
2022/10/26 05:48:23;;;;;;;;;;;9.80;99.90;;;;;;5056080;28;19935;-53
2022/10/26 05:50:48;;;;;;;;;;;9.80;99.90;;;;;;5051124;28;19916;-49
2022/10/26 05:53:14;;;;;;;;;;;9.80;99.90;;;;;;5051998;28;20289;-49
2022/10/26 05:55:39;;;;;;;;;;;9.80;99.90;;;;;;5064636;28;20381;-52
2022/10/26 05:58:09;;;;;;;;;;;9.80;99.90;;;;;;5070341;28;19931;-48
2022/10/26 06:00:35;;;;;;;;;;;9.90;99.90;;;;;;5050869;28;19924;-48
2022/10/26 06:03:20;;;;;;;;;;;9.90;99.90;;;;;;5052743;28;19977;-48
2022/10/26 06:05:52;;;;;;;;;;;9.90;99.90;;;;;;5070968;28;19924;-48
2022/10/26 06:08:19;;;;;;;;;;;9.90;99.90;;;;;;5071537;28;20286;-50
2022/10/26 06:10:45;;;;;;;;;;;10.00;99.90;;;;;;5069568;28;19916;-51
2022/10/26 06:13:10;;;;;;;;;;;9.90;99.90;;;;;;5067250;28;19978;-49
2022/10/26 06:15:40;;;;;;;;;;;9.90;99.90;;;;;;5050492;28;19924;-49
2022/10/26 06:18:42;;;;;;;;;;;9.90;99.90;;;;;;5050066;28;19970;-50
2022/10/26 06:21:26;;;;;;;;;;;9.90;99.90;;;;;;5008573;28;19967;-48
2022/10/26 06:23:54;;;;;;;;;;;9.90;99.90;;;;;;5046856;28;20304;-49
2022/10/26 06:26:31;;;;;;;;;;;9.90;99.90;;;;;;5050601;28;20008;-48
2022/10/26 06:29:10;;;;;;;;;;;9.90;99.90;;;;;;5057435;28;20333;-48
2022/10/26 06:31:35;;;;;;;;;;;9.90;99.90;;;;;;5060624;28;19916;-53
2022/10/26 06:34:01;;;;;;;;;;;9.90;99.90;;;;;;5054512;28;20008;-51
2022/10/26 06:36:27;;;;;;;;;;;9.90;99.90;;;;;;5070541;28;19931;-51
2022/10/26 06:39:00;;;;;;;;;;;9.90;99.90;;;;;;5065352;28;20391;-49
2022/10/26 06:41:26;;;;;;;;;;;10.00;99.90;;;;;;5061629;28;19916;-49
2022/10/26 06:43:52;;;;;;;;;;;10.00;99.90;;;;;;5062732;28;19931;-54
2022/10/26 06:46:26;;;;;;;;;;;10.00;99.90;;;;;;5050316;28;20428;-52
2022/10/26 06:48:57;;;;;;;;;;;10.00;99.90;;;;;;5051956;28;19920;-50
2022/10/26 06:51:23;;;;;;;;;;;10.00;99.90;;;;;;5066198;28;19916;-51
2022/10/26 06:53:54;;;;;;;;;;;10.00;99.90;;;;;;5060269;28;19935;-51
2022/10/26 06:56:19;;;;;;;;;;;10.10;99.90;;;;;;5049859;28;19916;-50
2022/10/26 06:58:46;;;;;;;;;;;10.10;99.90;;;;;;5052043;28;20294;-51
2022/10/26 07:01:11;;;;;;;;;;;10.10;99.90;;;;;;5056621;28;20298;-48
2022/10/26 07:03:37;;;;;;;;;;;10.10;99.90;;;;;;5061910;28;19921;-51
2022/10/26 07:06:03;;;;;;;;;;;10.20;99.90;;;;;;5057698;28;19920;-50
2022/10/26 07:08:30;;;;;;;;;;;10.20;99.90;;;;;;5055824;28;19917;-53
2022/10/26 07:10:56;;;;;;;;;;;10.20;99.90;;;;;;5047775;28;19923;-51
2022/10/26 07:13:21;;;;;;;;;;;10.30;99.90;;;;;;5060468;28;19924;-51
2022/10/26 07:15:47;;;;;;;;;;;10.30;99.90;;;;;;5052080;28;20547;-51
2022/10/26 07:18:12;;;;;;;;;;;10.40;99.90;;;;;;5055471;28;19916;-51
2022/10/26 07:20:38;;;;;;;;;;;11.00;99.90;;;;;;5062510;28;19967;-53
2022/10/26 07:23:09;;;;;;;;;;;11.90;99.90;;;;;;5052148;28;20405;-51
2022/10/26 07:25:37;;;;;;;;;;;12.80;99.90;;;;;;5061000;28;19916;-50
2022/10/26 07:28:03;;;;;;;;;;;13.80;99.90;;;;;;5053053;28;20239;-52
2022/10/26 07:30:29;;;;;;;;;;;14.50;99.90;;;;;;5051477;28;20279;-52
2022/10/26 07:33:13;;;;;;;;;;;14.50;99.90;;;;;;5056300;28;19920;-53
2022/10/26 07:35:39;;;;;;;;;;;14.20;99.90;;;;;;5066578;28;19963;-52
2022/10/26 07:38:05;;;;;;;;;;;13.80;99.90;;;;;;5054688;28;19959;-53
2022/10/26 07:40:35;;;;;;;;;;;13.50;99.90;;;;;;5056857;28;19952;-52
2022/10/26 07:43:00;;;;;;;;;;;13.30;99.90;;;;;;5053721;28;19920;-54
2022/10/26 07:45:26;;;;;;;;;;;13.20;99.90;;;;;;5052908;28;19917;-48
2022/10/26 07:47:52;;;;;;;;;;;13.20;99.90;;;;;;5050715;28;19924;-49
2022/10/26 07:50:17;;;;;;;;;;;13.20;99.90;;;;;;5049755;28;19917;-50
2022/10/26 07:52:43;;;;;;;;;;;13.10;99.90;;;;;;5054514;28;19923;-51
2022/10/26 07:55:08;;;;;;;;;;;13.00;99.90;;;;;;5053835;28;19951;-52
2022/10/26 07:57:34;;;;;;;;;;;12.90;99.90;;;;;;5059523;28;19916;-49
2022/10/26 08:00:00;;;;;;;;;;;12.80;99.90;;;;;;5050971;28;20369;-48
2022/10/26 08:02:25;;;;;;;;;;;12.80;99.90;;;;;;5054794;28;20117;-48
2022/10/26 08:04:50;;;;;;;;;;;12.80;99.90;;;;;;5048647;28;19921;-49
2022/10/26 08:07:16;;;;;;;;;;;12.90;99.90;;;;;;5055321;28;20029;-49
2022/10/26 08:09:42;;;;;;;;;;;12.90;99.90;;;;;;5053789;28;19920;-49
2022/10/26 08:12:07;;;;;;;;;;;12.90;99.90;;;;;;5058774;28;19916;-48
2022/10/26 08:14:32;;;;;;;;;;;12.80;99.90;;;;;;5050979;28;20303;-48
2022/10/26 08:16:58;;;;;;;;;;;12.70;99.90;;;;;;5057339;28;19930;-48
2022/10/26 08:19:23;;;;;;;;;;;12.70;99.90;;;;;;5055372;28;19927;-51
2022/10/26 08:21:49;;;;;;;;;;;12.60;99.90;;;;;;5060333;28;20077;-48
2022/10/26 08:24:14;;;;;;;;;;;12.60;99.90;;;;;;5051654;28;19925;-49
2022/10/26 08:26:40;;;;;;;;;;;12.70;99.90;;;;;;5053451;28;19927;-49
2022/10/26 08:29:06;;;;;;;;;;;12.90;99.90;;;;;;5054982;28;19916;-49
2022/10/26 08:31:31;;;;;;;;;;;13.10;99.90;;;;;;5052603;28;20054;-49
2022/10/26 08:33:58;;;;;;;;;;;13.30;99.90;;;;;;5050713;28;20223;-49
2022/10/26 08:36:24;;;;;;;;;;;13.50;99.90;;;;;;5048758;28;19924;-50
2022/10/26 08:38:51;;;;;;;;;;;13.70;99.90;;;;;;5049534;28;19916;-50
2022/10/26 08:41:19;;;;;;;;;;;13.90;99.90;;;;;;5059351;28;19921;-49
2022/10/26 08:43:51;;;;;;;;;;;14.00;99.90;;;;;;5055121;28;19929;-50
2022/10/26 08:46:18;;;;;;;;;;;14.10;99.90;;;;;;5047096;28;19967;-49
2022/10/26 08:48:50;;;;;;;;;;;14.30;99.90;;;;;;5062796;28;20329;-50
2022/10/26 08:51:21;;;;;;;;;;;14.40;99.90;;;;;;5046682;28;19916;-48
2022/10/26 08:53:51;;;;;;;;;;;14.40;99.90;;;;;;5056211;28;19917;-50
2022/10/26 08:56:21;;;;;;;;;;;14.50;99.90;;;;;;5047051;28;20015;-51
2022/10/26 08:58:52;;;;;;;;;;;14.70;99.90;;;;;;5051860;28;20011;-49
2022/10/26 09:01:17;;;;;;;;;;;14.80;99.90;;;;;;5053874;28;19940;-49
2022/10/26 09:03:43;;;;;;;;;;;14.90;99.90;;;;;;5057024;28;20305;-49
2022/10/26 09:06:15;;;;;;;;;;;14.90;99.90;;;;;;5052406;28;20992;-50
2022/10/26 09:08:46;;;;;;;;;;;15.00;99.90;;;;;;5060148;28;19966;-51
2022/10/26 09:11:21;;;;;;;;;;;15.10;99.90;;;;;;5057642;28;19935;-53
2022/10/26 09:13:58;;;;;;;;;;;15.20;99.90;;;;;;5057510;28;19916;-53
2022/10/26 09:16:26;;;;;;;;;;;15.20;99.90;;;;;;5052948;28;20380;-50
2022/10/26 09:18:55;;;;;;;;;;;15.30;99.90;;;;;;5054669;28;19927;-51
2022/10/26 09:21:39;;;;;;;;;;;15.40;99.90;;;;;;5052138;28;19985;-53
2022/10/26 09:24:04;;;;;;;;;;;15.40;99.90;;;;;;5053215;28;19920;-51
2022/10/26 09:26:32;;;;;;;;;;;15.50;99.90;;;;;;5051916;28;20073;-52
2022/10/26 09:29:00;;;;;;;;;;;15.50;99.90;;;;;;5052822;28;19924;-50
2022/10/26 09:31:26;;;;;;;;;;;15.60;99.90;;;;;;5053968;28;20344;-53
2022/10/26 09:33:52;;;;;;;;;;;15.70;99.90;;;;;;5051518;28;20011;-53
2022/10/26 09:36:18;;;;;;;;;;;15.80;99.90;;;;;;5054801;28;19927;-53
2022/10/26 09:38:54;;;;;;;;;;;16.00;99.90;;;;;;5052208;28;20546;-52
2022/10/26 09:41:29;;;;;;;;;;;16.10;99.90;;;;;;5053019;28;20040;-53
2022/10/26 09:43:57;;;;;;;;;;;16.20;99.90;;;;;;5049438;28;19921;-52
2022/10/26 09:46:39;;;;;;;;;;;16.30;99.90;;;;;;5050163;28;20448;-52
2022/10/26 09:49:05;;;;;;;;;;;16.40;99.90;;;;;;5055802;28;20097;-53
2022/10/26 09:51:33;;;;;;;;;;;16.40;99.90;;;;;;5055512;28;19965;-51
2022/10/26 09:54:00;;;;;;;;;;;16.50;99.90;;;;;;5034225;28;19920;-51
2022/10/26 09:56:26;;;;;;;;;;;16.60;99.90;;;;;;5055153;28;19921;-53
2022/10/26 09:59:03;;;;;;;;;;;16.60;99.90;;;;;;5052941;28;20641;-53
2022/10/26 10:01:33;;;;;;;;;;;16.70;99.90;;;;;;5052737;28;19917;-53
2022/10/26 10:04:18;;;;;;;;;;;16.90;99.90;;;;;;5053831;28;19932;-52
2022/10/26 10:06:45;;;;;;;;;;;17.00;99.90;;;;;;5054660;28;19923;-52
2022/10/26 10:09:12;;;;;;;;;;;17.10;99.90;;;;;;5054356;28;19921;-51
2022/10/26 10:11:53;;;;;;;;;;;17.30;99.90;;;;;;5052947;28;19928;-53
2022/10/26 10:14:19;;;;;;;;;;;17.30;99.90;;;;;;5055646;28;19970;-52
2022/10/26 10:16:54;;;;;;;;;;;17.50;99.90;;;;;;5069579;28;20020;-52
2022/10/26 10:19:22;;;;;;;;;;;17.60;99.90;;;;;;5055161;28;20369;-50
2022/10/26 10:21:48;;;;;;;;;;;17.70;99.90;;;;;;5055693;28;19991;-53
2022/10/26 10:24:25;;;;;;;;;;;17.70;99.90;;;;;;5050810;28;19925;-51
2022/10/26 10:27:04;;;;;;;;;;;17.80;99.90;;;;;;5054630;28;19924;-53
2022/10/26 10:29:31;;;;;;;;;;;17.90;99.90;;;;;;5054722;28;20280;-52
2022/10/26 10:32:01;;;;;;;;;;;18.00;99.90;;;;;;5053325;28;19916;-52
2022/10/26 10:34:28;;;;;;;;;;;18.00;99.90;;;;;;5053796;28;20011;-53
2022/10/26 10:36:54;;;;;;;;;;;18.10;99.90;;;;;;5054350;28;19916;-53
2022/10/26 10:39:27;;;;;;;;;;;18.10;99.90;;;;;;5054597;28;19931;-54
2022/10/26 10:41:52;;;;;;;;;;;18.20;99.90;;;;;;5052281;28;19917;-52
2022/10/26 10:44:21;;;;;;;;;;;18.20;99.90;;;;;;5051831;28;20046;-52
2022/10/26 10:46:47;;;;;;;;;;;18.30;99.90;;;;;;5054362;28;20737;-54
2022/10/26 10:49:17;;;;;;;;;;;18.30;99.90;;;;;;5054972;28;19955;-53
2022/10/26 10:51:43;;;;;;;;;;;18.30;99.90;;;;;;5053762;28;19974;-51
2022/10/26 10:54:21;;;;;;;;;;;18.30;99.90;;;;;;5050008;28;19956;-52
2022/10/26 10:56:52;;;;;;;;;;;18.40;99.90;;;;;;5053810;28;19939;-54
2022/10/26 10:59:34;;;;;;;;;;;18.40;99.90;;;;;;5057079;28;20353;-54
2022/10/26 11:02:02;;;;;;;;;;;18.50;99.90;;;;;;5056980;28;19920;-52
2022/10/26 11:04:43;;;;;;;;;;;18.50;99.90;;;;;;5056724;28;20267;-53
2022/10/26 11:07:08;;;;;;;;;;;18.60;99.90;;;;;;5055972;28;20423;-50
2022/10/26 11:09:36;;;;;;;;;;;18.60;99.90;;;;;;5057359;28;19971;-51
2022/10/26 11:12:05;;;;;;;;;;;18.70;99.90;;;;;;5056933;28;19928;-54
2022/10/26 11:14:37;;;;;;;;;;;18.80;99.90;;;;;;5055402;28;19923;-54
2022/10/26 11:17:06;;;;;;;;;;;18.80;99.90;;;;;;5058290;28;19931;-54
2022/10/26 11:19:32;;;;;;;;;;;18.90;99.90;;;;;;5057842;28;19936;-52
2022/10/26 11:21:57;;;;;;;;;;;19.00;99.90;;;;;;5055875;28;19924;-54
2022/10/26 11:24:25;;;;;;;;;;;19.10;99.90;;;;;;5056300;28;19928;-54
2022/10/26 11:27:11;;;;;;;;;;;19.20;99.90;;;;;;5056563;28;19939;-54
2022/10/26 11:29:50;;;;;;;;;;;19.20;99.90;;;;;;5055387;28;19917;-53
2022/10/26 11:32:24;;;;;;;;;;;19.20;99.90;;;;;;5056312;28;19916;-53
2022/10/26 11:34:56;;;;;;;;;;;19.20;99.90;;;;;;5053039;28;20010;-53
2022/10/26 11:37:36;;;;;;;;;;;19.30;99.90;;;;;;5056434;28;20301;-54
2022/10/26 11:40:07;;;;;;;;;;;19.40;99.90;;;;;;5056178;28;19983;-53
2022/10/26 11:42:33;;;;;;;;;;;19.30;99.90;;;;;;5055022;28;19916;-53
2022/10/26 11:45:08;;;;;;;;;;;19.40;99.90;;;;;;5056441;28;20362;-53
2022/10/26 11:47:39;;;;;;;;;;;19.50;99.90;;;;;;5059180;28;19963;-52
2022/10/26 11:50:23;;;;;;;;;;;19.60;99.90;;;;;;5053829;28;19917;-52
2022/10/26 11:52:56;;;;;;;;;;;19.60;99.90;;;;;;5052681;28;19920;-52
2022/10/26 11:55:22;;;;;;;;;;;19.60;99.90;;;;;;5052321;28;19998;-51
2022/10/26 11:57:49;;;;;;;;;;;19.50;99.90;;;;;;5060672;28;19968;-51
2022/10/26 12:00:15;;;;;;;;;;;19.50;99.90;;;;;;5052878;28;19974;-54
2022/10/26 12:02:42;;;;;;;;;;;19.50;99.90;;;;;;5055135;28;19920;-53
2022/10/26 12:05:08;;;;;;;;;;;19.60;99.90;;;;;;5052208;28;19916;-52
2022/10/26 12:07:37;;;;;;;;;;;19.70;99.90;;;;;;5056973;28;19966;-51
2022/10/26 12:10:05;;;;;;;;;;;19.80;99.90;;;;;;5055398;28;19916;-54
2022/10/26 12:12:31;;;;;;;;;;;19.80;99.90;;;;;;5053862;28;19920;-51
2022/10/26 12:15:15;;;;;;;;;;;19.80;99.90;;;;;;5054702;28;19916;-54
2022/10/26 12:17:51;;;;;;;;;;;19.90;99.90;;;;;;5053579;28;19917;-53
2022/10/26 12:20:19;;;;;;;;;;;19.90;99.90;;;;;;5056722;28;19931;-54
2022/10/26 12:22:45;;;;;;;;;;;19.90;99.90;;;;;;5054504;28;19917;-52
2022/10/26 12:25:13;;;;;;;;;;;19.70;99.90;;;;;;5054531;28;19931;-54
2022/10/26 12:27:38;;;;;;;;;;;19.60;99.90;;;;;;5056954;28;19916;-51
2022/10/26 12:30:10;;;;;;;;;;;19.50;99.90;;;;;;5048909;28;19917;-54
2022/10/26 12:32:35;;;;;;;;;;;19.50;99.90;;;;;;5056474;28;19923;-52
2022/10/26 12:35:21;;;;;;;;;;;19.40;99.90;;;;;;5057019;28;19920;-54
2022/10/26 12:37:46;;;;;;;;;;;19.40;99.90;;;;;;5055728;28;19917;-54
2022/10/26 12:40:31;;;;;;;;;;;19.50;99.90;;;;;;5056762;28;19978;-52
2022/10/26 12:42:57;;;;;;;;;;;19.50;99.90;;;;;;5057563;28;19929;-51
2022/10/26 12:45:23;;;;;;;;;;;19.50;99.90;;;;;;5054917;28;20719;-52
2022/10/26 12:47:49;;;;;;;;;;;19.50;99.90;;;;;;5055658;28;19923;-55
2022/10/26 12:50:14;;;;;;;;;;;19.60;99.90;;;;;;5055959;28;20356;-52
2022/10/26 12:52:45;;;;;;;;;;;19.60;99.90;;;;;;5053834;28;20373;-54
2022/10/26 12:55:11;;;;;;;;;;;19.60;99.90;;;;;;5049235;28;19933;-54
2022/10/26 12:58:02;;;;;;;;;;;19.60;99.90;;;;;;5055003;28;19962;-55
2022/10/26 13:00:27;;;;;;;;;;;19.70;99.90;;;;;;5058241;28;20055;-54
2022/10/26 13:03:08;;;;;;;;;;;19.80;99.90;;;;;;5056851;28;20027;-52
2022/10/26 13:05:43;;;;;;;;;;;19.80;99.90;;;;;;5053428;28;19916;-54
2022/10/26 13:08:10;;;;;;;;;;;19.70;99.90;;;;;;5053006;28;19917;-54
2022/10/26 13:10:37;;;;;;;;;;;19.70;99.90;;;;;;5057936;28;19923;-54
2022/10/26 13:13:04;;;;;;;;;;;19.70;99.90;;;;;;5053782;28;19920;-55
2022/10/26 13:15:37;;;;;;;;;;;19.70;99.90;;;;;;5055465;28;19916;-52
2022/10/26 13:18:08;;;;;;;;;;;19.60;99.90;;;;;;5055310;28;20451;-53
2022/10/26 13:20:34;;;;;;;;;;;19.60;99.90;;;;;;5053968;28;19923;-53
2022/10/26 13:23:01;;;;;;;;;;;19.50;99.90;;;;;;5053995;28;19966;-54
2022/10/26 13:25:28;;;;;;;;;;;19.50;99.90;;;;;;5055502;28;20372;-54
2022/10/26 13:28:05;;;;;;;;;;;19.50;99.90;;;;;;5058010;28;20373;-50
2022/10/26 13:30:33;;;;;;;;;;;19.50;99.90;;;;;;5053636;28;20252;-53
2022/10/26 13:32:59;;;;;;;;;;;19.50;99.90;;;;;;5055109;28;19920;-51
2022/10/26 13:35:25;;;;;;;;;;;19.40;99.90;;;;;;5051904;28;19948;-52
2022/10/26 13:37:52;;;;;;;;;;;19.40;99.90;;;;;;5055324;28;20590;-53
2022/10/26 13:40:19;;;;;;;;;;;19.40;99.90;;;;;;5055687;28;19969;-51
2022/10/26 13:42:46;;;;;;;;;;;19.40;99.90;;;;;;5057011;28;19924;-52
2022/10/26 13:45:14;;;;;;;;;;;19.40;99.90;;;;;;5054242;28;20389;-52
2022/10/26 13:47:45;;;;;;;;;;;19.40;99.90;;;;;;5053955;28;19916;-54
2022/10/26 13:50:14;;;;;;;;;;;19.40;99.90;;;;;;5055635;28;19917;-53
2022/10/26 13:52:42;;;;;;;;;;;19.30;99.90;;;;;;5052539;28;19945;-54
2022/10/26 13:55:19;;;;;;;;;;;19.30;99.90;;;;;;5055413;28;20450;-54
2022/10/26 13:57:55;;;;;;;;;;;19.30;99.90;;;;;;5055213;28;19917;-55
2022/10/26 14:00:21;;;;;;;;;;;19.40;99.90;;;;;;5053862;28;20011;-54
2022/10/26 14:02:47;;;;;;;;;;;19.40;99.90;;;;;;5055231;28;20047;-53
2022/10/26 14:05:14;;;;;;;;;;;19.40;99.90;;;;;;5053658;28;19935;-54
2022/10/26 14:07:39;;;;;;;;;;;19.40;99.90;;;;;;5055314;28;19924;-53
2022/10/26 14:10:05;;;;;;;;;;;19.40;99.90;;;;;;5054948;28;19961;-53
2022/10/26 14:12:31;;;;;;;;;;;19.50;99.90;;;;;;5054448;28;19931;-55
2022/10/26 14:15:01;;;;;;;;;;;19.50;99.90;;;;;;5053539;28;19920;-54
2022/10/26 14:17:26;;;;;;;;;;;19.50;99.90;;;;;;5054234;28;20423;-55
2022/10/26 14:19:52;;;;;;;;;;;19.50;99.90;;;;;;5056229;28;19924;-54
2022/10/26 14:22:20;;;;;;;;;;;19.40;99.90;;;;;;5052847;28;20297;-55
2022/10/26 14:24:50;;;;;;;;;;;19.30;99.90;;;;;;5047743;28;19940;-55
2022/10/26 14:27:16;;;;;;;;;;;19.30;99.90;;;;;;5068236;28;19919;-52
2022/10/26 14:29:42;;;;;;;;;;;19.30;99.90;;;;;;5064638;28;19924;-51
2022/10/26 14:32:20;;;;;;;;;;;19.50;99.90;;;;;;5063845;28;19931;-54